createdAt,value
2023-03-18T00:00:15.950Z,100.00
2023-03-18T00:02:42.416Z,100.00
2023-03-18T00:05:10.854Z,100.00
2023-03-18T00:07:37.296Z,100.00
2023-03-18T00:10:04.818Z,100.00
2023-03-18T00:12:32.437Z,100.00
2023-03-18T00:14:59.268Z,100.00
2023-03-18T00:17:25.751Z,100.00
2023-03-18T00:19:52.142Z,100.00
2023-03-18T00:22:19.144Z,100.00
2023-03-18T00:24:45.615Z,100.00
2023-03-18T00:27:11.994Z,100.00
2023-03-18T00:29:39.153Z,100.00
2023-03-18T00:32:08.351Z,100.00
2023-03-18T00:34:34.740Z,100.00
2023-03-18T00:37:01.137Z,100.00
2023-03-18T00:39:30.646Z,100.00
2023-03-18T00:41:57.557Z,100.00
2023-03-18T00:44:25.469Z,100.00
2023-03-18T00:46:52.152Z,100.00
2023-03-18T00:49:19.179Z,100.00
2023-03-18T00:51:45.992Z,100.00
2023-03-18T00:54:17.383Z,100.00
2023-03-18T00:56:44.491Z,100.00
2023-03-18T00:59:11.327Z,100.00
2023-03-18T01:01:38.506Z,100.00
2023-03-18T01:04:05.800Z,100.00
2023-03-18T01:06:34.532Z,100.00
2023-03-18T01:09:03.840Z,100.00
2023-03-18T01:11:30.564Z,100.00
2023-03-18T01:13:58.697Z,100.00
2023-03-18T01:16:25.133Z,100.00
2023-03-18T01:18:52.911Z,100.00
2023-03-18T01:21:19.683Z,100.00
2023-03-18T01:23:51.509Z,100.00
2023-03-18T01:26:18.121Z,100.00
2023-03-18T01:28:46.568Z,100.00
2023-03-18T01:31:14.546Z,100.00
2023-03-18T01:33:42.833Z,100.00
2023-03-18T01:36:09.785Z,100.00
2023-03-18T01:38:36.240Z,100.00
2023-03-18T01:41:10.573Z,100.00
2023-03-18T01:43:39.895Z,100.00
2023-03-18T01:46:30.710Z,100.00
2023-03-18T01:48:58.163Z,100.00
2023-03-18T01:51:26.574Z,100.00
2023-03-18T01:53:54.196Z,100.00
2023-03-18T01:56:21.491Z,100.00
2023-03-18T01:58:52.212Z,100.00
2023-03-18T02:01:23.401Z,100.00
2023-03-18T02:03:51.625Z,100.00
2023-03-18T02:06:18.783Z,100.00
2023-03-18T02:08:52.710Z,100.00
2023-03-18T02:11:19.509Z,100.00
2023-03-18T02:13:47.542Z,100.00
2023-03-18T02:16:17.804Z,100.00
2023-03-18T02:18:50.826Z,100.00
2023-03-18T02:21:37.154Z,100.00
2023-03-18T02:24:12.946Z,100.00
2023-03-18T02:26:46.470Z,100.00
2023-03-18T02:29:18.996Z,100.00
2023-03-18T02:31:54.558Z,100.00
2023-03-18T02:34:25.026Z,100.00
2023-03-18T02:36:54.121Z,100.00
2023-03-18T02:39:21.674Z,100.00
2023-03-18T02:41:48.485Z,100.00
2023-03-18T02:44:16.210Z,100.00
2023-03-18T02:47:08.254Z,100.00
2023-03-18T02:49:34.927Z,100.00
2023-03-18T02:52:01.456Z,100.00
2023-03-18T02:54:29.613Z,100.00
2023-03-18T02:56:56.600Z,100.00
2023-03-18T02:59:24.848Z,100.00
2023-03-18T03:01:53.250Z,100.00
2023-03-18T03:04:23.126Z,100.00
2023-03-18T03:06:51.488Z,100.00
2023-03-18T03:09:24.042Z,100.00
2023-03-18T03:11:50.762Z,100.00
2023-03-18T03:14:21.614Z,100.00
2023-03-18T03:16:52.141Z,100.00
2023-03-18T03:19:18.631Z,100.00
2023-03-18T03:21:45.075Z,100.00
2023-03-18T03:24:11.551Z,100.00
2023-03-18T03:26:39.454Z,100.00
2023-03-18T03:29:06.626Z,100.00
2023-03-18T03:31:33.456Z,100.00
2023-03-18T03:34:00.496Z,100.00
2023-03-18T03:36:26.902Z,100.00
2023-03-18T03:38:55.908Z,100.00
2023-03-18T03:41:22.326Z,100.00
2023-03-18T03:43:48.980Z,100.00
2023-03-18T03:46:15.945Z,100.00
2023-03-18T03:48:42.697Z,100.00
2023-03-18T03:51:14.284Z,100.00
2023-03-18T03:53:41.179Z,100.00
2023-03-18T03:56:08.482Z,100.00
2023-03-18T03:58:34.987Z,100.00
2023-03-18T04:01:01.827Z,100.00
2023-03-18T04:03:29.184Z,100.00
2023-03-18T04:05:56.590Z,100.00
2023-03-18T04:08:26.785Z,100.00
2023-03-18T04:10:53.281Z,100.00
2023-03-18T04:13:19.843Z,100.00
2023-03-18T04:15:47.305Z,100.00
2023-03-18T04:18:17.617Z,100.00
2023-03-18T04:20:45.521Z,100.00
2023-03-18T04:23:23.701Z,100.00
2023-03-18T04:25:51.373Z,100.00
2023-03-18T04:28:17.893Z,100.00
2023-03-18T04:30:44.497Z,100.00
2023-03-18T04:33:15.102Z,100.00
2023-03-18T04:35:42.913Z,100.00
2023-03-18T04:38:11.600Z,100.00
2023-03-18T04:40:38.258Z,100.00
2023-03-18T04:43:05.539Z,100.00
2023-03-18T04:45:32.940Z,100.00
2023-03-18T04:48:01.332Z,100.00
2023-03-18T04:50:31.032Z,100.00
2023-03-18T04:52:58.138Z,100.00
2023-03-18T04:55:27.829Z,100.00
2023-03-18T04:57:54.882Z,100.00
2023-03-18T05:00:24.667Z,100.00
2023-03-18T05:03:00.850Z,100.00
2023-03-18T05:05:27.552Z,100.00
2023-03-18T05:07:54.426Z,100.00
2023-03-18T05:10:21.819Z,100.00
2023-03-18T05:12:49.072Z,100.00
2023-03-18T05:15:19.564Z,100.00
2023-03-18T05:17:52.882Z,100.00
2023-03-18T05:20:19.649Z,100.00
2023-03-18T05:22:47.008Z,100.00
2023-03-18T05:25:20.578Z,100.00
2023-03-18T05:27:49.522Z,100.00
2023-03-18T05:30:26.545Z,100.00
2023-03-18T05:32:56.603Z,100.00
2023-03-18T05:35:39.259Z,100.00
2023-03-18T05:38:07.649Z,100.00
2023-03-18T05:40:35.953Z,100.00
2023-03-18T05:43:10.633Z,100.00
2023-03-18T05:45:52.050Z,100.00
2023-03-18T05:48:25.721Z,100.00
2023-03-18T05:50:58.722Z,100.00
2023-03-18T05:53:28.626Z,100.00
2023-03-18T05:56:06.355Z,100.00
2023-03-18T05:58:34.498Z,100.00
2023-03-18T06:01:21.910Z,100.00
2023-03-18T06:03:51.278Z,100.00
2023-03-18T06:06:19.993Z,100.00
2023-03-18T06:08:48.519Z,100.00
2023-03-18T06:11:17.052Z,100.00
2023-03-18T06:13:45.153Z,100.00
2023-03-18T06:16:14.342Z,100.00
2023-03-18T06:18:42.261Z,100.00
2023-03-18T06:21:12.942Z,100.00
2023-03-18T06:23:40.829Z,100.00
2023-03-18T06:26:08.952Z,100.00
2023-03-18T06:28:46.079Z,100.00
2023-03-18T06:31:15.628Z,100.00
2023-03-18T06:33:43.479Z,100.00
2023-03-18T06:36:16.553Z,100.00
2023-03-18T06:38:48.013Z,100.00
2023-03-18T06:41:16.337Z,100.00
2023-03-18T06:43:58.536Z,100.00
2023-03-18T06:46:27.392Z,100.00
2023-03-18T06:48:55.695Z,100.00
2023-03-18T06:51:30.484Z,100.00
2023-03-18T06:53:59.227Z,100.00
2023-03-18T06:56:30.631Z,100.00
2023-03-18T06:59:10.826Z,100.00
2023-03-18T07:01:39.809Z,100.00
2023-03-18T07:04:08.228Z,100.00
2023-03-18T07:06:38.076Z,100.00
2023-03-18T07:09:06.616Z,100.00
2023-03-18T07:11:34.603Z,100.00
2023-03-18T07:14:08.287Z,100.00
2023-03-18T07:16:37.231Z,100.00
2023-03-18T07:19:05.392Z,100.00
2023-03-18T07:21:33.308Z,100.00
2023-03-18T07:24:03.928Z,100.00
2023-03-18T07:26:31.839Z,100.00
2023-03-18T07:28:59.624Z,100.00
2023-03-18T07:31:28.211Z,100.00
2023-03-18T07:33:57.315Z,100.00
2023-03-18T07:36:25.259Z,100.00
2023-03-18T07:38:53.104Z,100.00
2023-03-18T07:41:22.345Z,100.00
2023-03-18T07:43:50.139Z,100.00
2023-03-18T07:46:18.211Z,100.00
2023-03-18T07:48:46.629Z,100.00
2023-03-18T07:51:15.480Z,100.00
2023-03-18T07:53:43.602Z,100.00
2023-03-18T07:56:12.052Z,100.00
2023-03-18T07:58:41.685Z,100.00
2023-03-18T08:01:16.541Z,100.00
2023-03-18T08:03:44.747Z,100.00
2023-03-18T08:06:12.587Z,100.00
2023-03-18T08:08:42.085Z,100.00
2023-03-18T08:11:10.219Z,100.00
2023-03-18T08:13:38.818Z,100.00
2023-03-18T08:16:09.328Z,100.00
2023-03-18T08:18:37.331Z,100.00
2023-03-18T08:21:06.044Z,100.00
2023-03-18T08:23:33.896Z,100.00
2023-03-18T08:26:01.655Z,100.00
2023-03-18T08:28:29.532Z,100.00
2023-03-18T08:30:59.163Z,100.00
2023-03-18T08:33:29.120Z,100.00
2023-03-18T08:35:57.970Z,100.00
2023-03-18T08:38:26.412Z,100.00
2023-03-18T08:40:54.167Z,100.00
2023-03-18T08:43:22.434Z,100.00
2023-03-18T08:45:53.924Z,100.00
2023-03-18T08:48:23.502Z,100.00
2023-03-18T08:50:53.606Z,100.00
2023-03-18T08:53:21.731Z,100.00
2023-03-18T08:55:49.563Z,100.00
2023-03-18T08:58:18.423Z,97.13
2023-03-18T09:00:46.788Z,99.63
2023-03-18T09:03:15.844Z,95.32
2023-03-18T09:05:44.073Z,74.59
2023-03-18T09:08:13.525Z,76.67
2023-03-18T09:10:41.522Z,71.25
2023-03-18T09:13:09.412Z,71.05
2023-03-18T09:15:37.160Z,70.00
2023-03-18T09:18:11.623Z,68.32
2023-03-18T09:20:40.208Z,74.42
2023-03-18T09:23:08.277Z,62.91
2023-03-18T09:25:37.413Z,60.52
2023-03-18T09:28:05.590Z,58.95
2023-03-18T09:30:34.729Z,59.43
2023-03-18T09:33:02.835Z,59.39
2023-03-18T09:35:30.807Z,55.68
2023-03-18T09:37:58.824Z,56.85
2023-03-18T09:40:29.436Z,56.68
2023-03-18T09:43:14.344Z,57.43
2023-03-18T09:45:50.715Z,57.17
2023-03-18T09:48:50.076Z,57.22
2023-03-18T09:51:33.230Z,59.52
2023-03-18T09:54:06.952Z,60.50
2023-03-18T09:56:38.197Z,61.42
2023-03-18T09:59:17.824Z,58.99
2023-03-18T10:01:49.549Z,58.34
2023-03-18T10:04:21.629Z,56.61
2023-03-18T10:06:52.617Z,55.14
2023-03-18T10:09:24.540Z,56.01
2023-03-18T10:11:54.878Z,54.08
2023-03-18T10:14:37.244Z,54.82
2023-03-18T10:17:16.149Z,54.86
2023-03-18T10:19:48.282Z,54.64
2023-03-18T10:22:33.793Z,54.04
2023-03-18T10:25:11.214Z,54.40
2023-03-18T10:27:50.299Z,52.23
2023-03-18T10:30:39.538Z,51.34
2023-03-18T10:33:18.931Z,55.73
2023-03-18T10:35:52.792Z,51.42
2023-03-18T10:38:25.226Z,52.30
2023-03-18T10:40:53.911Z,52.05
2023-03-18T10:43:26.186Z,53.41
2023-03-18T10:46:02.071Z,51.22
2023-03-18T10:48:33.837Z,50.38
2023-03-18T10:51:10.830Z,51.94
2023-03-18T10:53:45.545Z,51.61
2023-03-18T10:56:14.912Z,48.43
2023-03-18T10:58:43.766Z,48.28
2023-03-18T11:01:17.575Z,52.68
2023-03-18T11:03:54.553Z,49.74
2023-03-18T11:06:26.382Z,49.58
2023-03-18T11:09:02.994Z,49.76
2023-03-18T11:11:34.668Z,47.26
2023-03-18T11:14:05.155Z,47.71
2023-03-18T11:16:40.450Z,47.18
2023-03-18T11:19:23.462Z,47.90
2023-03-18T11:22:02.332Z,46.39
2023-03-18T11:24:39.443Z,46.87
2023-03-18T11:27:25.936Z,45.20
2023-03-18T11:29:57.778Z,45.93
2023-03-18T11:32:29.063Z,47.65
2023-03-18T11:34:58.782Z,46.82
2023-03-18T11:37:34.403Z,44.77
2023-03-18T11:40:21.114Z,43.21
2023-03-18T11:42:54.728Z,46.23
2023-03-18T11:45:33.154Z,45.56
2023-03-18T11:48:03.648Z,43.93
2023-03-18T11:50:41.627Z,44.44
2023-03-18T11:53:14.794Z,45.30
2023-03-18T11:55:49.054Z,42.15
2023-03-18T11:58:43.081Z,46.67
2023-03-18T12:01:18.597Z,44.65
2023-03-18T12:04:10.191Z,44.57
2023-03-18T12:06:44.885Z,42.49
2023-03-18T12:09:18.780Z,44.34
2023-03-18T12:12:10.044Z,45.53
2023-03-18T12:14:44.689Z,44.71
2023-03-18T12:17:23.451Z,43.38
2023-03-18T12:20:10.489Z,43.69
2023-03-18T12:22:55.157Z,41.86
2023-03-18T12:25:40.861Z,42.68
2023-03-18T12:28:20.062Z,44.88
2023-03-18T12:31:05.085Z,44.32
2023-03-18T12:33:50.868Z,45.92
2023-03-18T12:36:30.073Z,44.50
2023-03-18T12:39:11.163Z,43.56
2023-03-18T12:41:51.396Z,42.27
2023-03-18T12:44:33.496Z,44.43
2023-03-18T12:47:06.650Z,45.20
2023-03-18T12:49:38.783Z,44.70
2023-03-18T12:52:12.134Z,42.83
2023-03-18T12:54:44.191Z,42.56
2023-03-18T12:57:16.950Z,41.39
2023-03-18T12:59:49.429Z,41.68
2023-03-18T13:02:29.548Z,44.50
2023-03-18T13:05:01.707Z,41.82
2023-03-18T13:07:39.072Z,41.15
2023-03-18T13:10:21.718Z,41.02
2023-03-18T13:12:52.934Z,41.96
2023-03-18T13:15:29.234Z,42.31
2023-03-18T13:18:01.621Z,42.09
2023-03-18T13:20:33.215Z,41.69
2023-03-18T13:23:25.899Z,42.28
2023-03-18T13:26:07.429Z,42.18
2023-03-18T13:29:05.548Z,41.95
2023-03-18T13:31:46.538Z,42.33
2023-03-18T13:34:59.169Z,41.82
2023-03-18T13:37:57.564Z,42.10
2023-03-18T13:40:38.949Z,41.33
2023-03-18T13:43:14.112Z,42.37
2023-03-18T13:45:46.927Z,42.13
2023-03-18T13:48:18.279Z,43.04
2023-03-18T13:50:48.293Z,42.69
2023-03-18T13:53:25.325Z,42.40
2023-03-18T13:56:05.952Z,42.86
2023-03-18T13:58:44.736Z,41.52
2023-03-18T14:01:29.854Z,42.05
2023-03-18T14:04:02.012Z,41.17
2023-03-18T14:06:56.477Z,40.98
2023-03-18T14:09:36.511Z,41.74
2023-03-18T14:12:19.220Z,41.55
2023-03-18T14:15:09.326Z,42.96
2023-03-18T14:17:46.626Z,42.66
2023-03-18T14:20:23.766Z,42.05
2023-03-18T14:22:53.155Z,41.29
2023-03-18T14:25:31.731Z,41.86
2023-03-18T14:28:14.676Z,41.01
2023-03-18T14:30:48.462Z,41.80
2023-03-18T14:33:36.112Z,41.69
2023-03-18T14:36:10.322Z,42.19
2023-03-18T14:38:50.618Z,43.91
2023-03-18T14:41:23.543Z,43.15
2023-03-18T14:44:03.474Z,42.94
2023-03-18T14:46:35.543Z,44.54
2023-03-18T14:49:04.569Z,44.79
2023-03-18T14:51:32.731Z,43.43
2023-03-18T14:54:05.070Z,44.70
2023-03-18T14:56:41.028Z,44.98
2023-03-18T14:59:17.440Z,46.18
2023-03-18T15:01:48.113Z,45.79
2023-03-18T15:04:19.827Z,46.46
2023-03-18T15:06:47.774Z,45.91
2023-03-18T15:09:20.672Z,45.39
2023-03-18T15:11:48.977Z,44.91
2023-03-18T15:14:23.703Z,46.38
2023-03-18T15:16:51.803Z,46.29
2023-03-18T15:19:20.504Z,44.90
2023-03-18T15:21:48.717Z,45.41
2023-03-18T15:24:22.335Z,45.69
2023-03-18T15:26:58.045Z,45.88
2023-03-18T15:29:31.499Z,46.15
2023-03-18T15:32:10.873Z,45.36
2023-03-18T15:34:42.241Z,45.91
2023-03-18T15:37:26.998Z,45.46
2023-03-18T15:39:58.849Z,46.27
2023-03-18T15:42:27.330Z,45.98
2023-03-18T15:45:00.489Z,45.91
2023-03-18T15:47:30.544Z,47.00
2023-03-18T15:50:00.427Z,47.30
2023-03-18T15:52:33.372Z,48.10
2023-03-18T15:55:02.404Z,48.07
2023-03-18T15:57:34.866Z,49.99
2023-03-18T16:00:08.496Z,49.88
2023-03-18T16:02:39.974Z,49.74
2023-03-18T16:05:09.270Z,50.05
2023-03-18T16:07:37.026Z,51.08
2023-03-18T16:10:05.338Z,50.98
2023-03-18T16:12:35.238Z,51.16
2023-03-18T16:15:07.916Z,52.59
2023-03-18T16:17:35.746Z,52.54
2023-03-18T16:20:06.476Z,53.40
2023-03-18T16:22:34.331Z,53.76
2023-03-18T16:25:02.212Z,54.17
2023-03-18T16:27:39.325Z,55.76
2023-03-18T16:30:19.205Z,57.30
2023-03-18T16:32:47.727Z,58.80
2023-03-18T16:35:16.857Z,58.44
2023-03-18T16:37:46.974Z,59.56
2023-03-18T16:40:18.106Z,61.25
2023-03-18T16:42:47.969Z,58.64
2023-03-18T16:45:19.859Z,57.23
2023-03-18T16:47:50.007Z,55.57
2023-03-18T16:50:19.970Z,56.07
2023-03-18T16:52:48.339Z,55.94
2023-03-18T16:55:19.304Z,57.14
2023-03-18T16:57:50.579Z,57.34
2023-03-18T17:00:23.879Z,58.42
2023-03-18T17:02:53.638Z,59.35
2023-03-18T17:05:22.445Z,60.11
2023-03-18T17:07:51.577Z,59.23
2023-03-18T17:10:21.424Z,64.32
2023-03-18T17:12:53.561Z,64.17
2023-03-18T17:15:28.738Z,66.52
2023-03-18T17:17:58.544Z,67.03
2023-03-18T17:20:28.419Z,68.50
2023-03-18T17:22:56.565Z,69.96
2023-03-18T17:25:27.154Z,72.21
2023-03-18T17:27:57.528Z,76.00
2023-03-18T17:30:33.423Z,78.91
2023-03-18T17:33:02.242Z,83.81
2023-03-18T17:35:30.528Z,85.43
2023-03-18T17:37:59.196Z,89.72
2023-03-18T17:40:29.911Z,91.76
2023-03-18T17:42:57.838Z,93.08
2023-03-18T17:45:29.926Z,93.21
2023-03-18T17:48:14.470Z,92.92
2023-03-18T17:50:44.197Z,96.28
2023-03-18T17:53:24.275Z,92.99
2023-03-18T17:55:53.423Z,95.51
2023-03-18T17:58:23.891Z,95.41
2023-03-18T18:00:54.098Z,99.02
2023-03-18T18:03:25.717Z,100.00
2023-03-18T18:05:54.521Z,100.00
2023-03-18T18:08:23.239Z,100.00
2023-03-18T18:10:51.587Z,100.00
2023-03-18T18:13:22.162Z,100.00
2023-03-18T18:15:51.555Z,100.00
2023-03-18T18:18:26.231Z,100.00
2023-03-18T18:20:57.034Z,100.00
2023-03-18T18:23:31.131Z,100.00
2023-03-18T18:26:00.977Z,100.00
2023-03-18T18:28:34.055Z,100.00
2023-03-18T18:31:03.404Z,100.00
2023-03-18T18:33:33.312Z,100.00
2023-03-18T18:36:01.511Z,100.00
2023-03-18T18:38:29.810Z,100.00
2023-03-18T18:40:59.063Z,100.00
2023-03-18T18:43:27.594Z,100.00
2023-03-18T18:45:57.511Z,100.00
2023-03-18T18:48:28.540Z,100.00
2023-03-18T18:50:58.502Z,100.00
2023-03-18T18:53:28.387Z,100.00
2023-03-18T18:55:58.876Z,100.00
2023-03-18T18:58:29.704Z,100.00
2023-03-18T19:01:00.796Z,100.00
2023-03-18T19:03:31.446Z,100.00
2023-03-18T19:06:02.342Z,100.00
2023-03-18T19:08:32.082Z,100.00
2023-03-18T19:11:02.716Z,100.00
2023-03-18T19:13:33.091Z,100.00
2023-03-18T19:16:04.612Z,100.00
2023-03-18T19:18:38.803Z,100.00
2023-03-18T19:21:08.834Z,100.00
2023-03-18T19:23:37.712Z,100.00
2023-03-18T19:26:07.413Z,100.00
2023-03-18T19:29:01.374Z,100.00
2023-03-18T19:31:32.252Z,100.00
2023-03-18T19:34:00.762Z,100.00
2023-03-18T19:36:32.514Z,100.00
2023-03-18T19:39:01.757Z,100.00
2023-03-18T19:41:30.244Z,100.00
2023-03-18T19:44:04.030Z,100.00
2023-03-18T19:46:36.968Z,100.00
2023-03-18T19:49:10.514Z,100.00
2023-03-18T19:51:39.720Z,100.00
2023-03-18T19:54:22.523Z,100.00
2023-03-18T19:56:51.091Z,100.00
2023-03-18T19:59:21.697Z,100.00
2023-03-18T20:01:49.868Z,100.00
2023-03-18T20:04:19.277Z,100.00
2023-03-18T20:06:49.100Z,100.00
2023-03-18T20:09:17.960Z,100.00
2023-03-18T20:11:46.290Z,100.00
2023-03-18T20:14:37.568Z,100.00
2023-03-18T20:17:28.642Z,100.00
2023-03-18T20:19:57.531Z,100.00
2023-03-18T20:22:29.789Z,100.00
2023-03-18T20:24:57.711Z,100.00
2023-03-18T20:27:25.557Z,100.00
2023-03-18T20:29:53.413Z,100.00
2023-03-18T20:32:21.224Z,100.00
2023-03-18T20:34:49.018Z,100.00
2023-03-18T20:37:25.181Z,100.00
2023-03-18T20:39:54.624Z,100.00
2023-03-18T20:42:22.706Z,100.00
2023-03-18T20:44:50.593Z,100.00
2023-03-18T20:47:18.434Z,100.00
2023-03-18T20:49:46.529Z,100.00
2023-03-18T20:52:26.908Z,100.00
2023-03-18T20:54:57.168Z,100.00
2023-03-18T20:57:25.436Z,100.00
2023-03-18T20:59:53.291Z,100.00
2023-03-18T21:02:31.657Z,100.00
2023-03-18T21:05:01.625Z,100.00
2023-03-18T21:07:30.768Z,100.00
2023-03-18T21:10:00.170Z,100.00
2023-03-18T21:12:28.167Z,100.00
2023-03-18T21:14:56.017Z,100.00
2023-03-18T21:17:25.950Z,100.00
2023-03-18T21:20:00.720Z,100.00
2023-03-18T21:22:33.364Z,100.00
2023-03-18T21:25:02.938Z,100.00
2023-03-18T21:27:31.038Z,100.00
2023-03-18T21:29:58.918Z,100.00
2023-03-18T21:32:28.499Z,100.00
2023-03-18T21:34:57.109Z,100.00
2023-03-18T21:37:26.583Z,100.00
2023-03-18T21:39:54.564Z,100.00
2023-03-18T21:42:26.528Z,100.00
2023-03-18T21:44:55.176Z,100.00
2023-03-18T21:47:24.335Z,100.00
2023-03-18T21:49:52.757Z,100.00
2023-03-18T21:52:31.393Z,100.00
2023-03-18T21:55:00.136Z,100.00
2023-03-18T21:57:30.907Z,100.00
2023-03-18T21:59:58.838Z,100.00
2023-03-18T22:02:29.347Z,100.00
2023-03-18T22:04:58.939Z,100.00
2023-03-18T22:07:28.229Z,100.00
2023-03-18T22:09:56.314Z,100.00
2023-03-18T22:12:26.192Z,100.00
2023-03-18T22:14:56.469Z,100.00
2023-03-18T22:17:26.291Z,100.00
2023-03-18T22:19:55.491Z,100.00
2023-03-18T22:22:25.586Z,100.00
2023-03-18T22:24:53.417Z,100.00
2023-03-18T22:27:23.440Z,100.00
2023-03-18T22:29:52.331Z,100.00
2023-03-18T22:32:38.836Z,100.00
2023-03-18T22:35:13.617Z,100.00
2023-03-18T22:37:42.392Z,100.00
2023-03-18T22:40:16.662Z,100.00
2023-03-18T22:42:44.854Z,100.00
2023-03-18T22:45:21.196Z,100.00
2023-03-18T22:47:51.480Z,100.00
2023-03-18T22:50:20.470Z,100.00
2023-03-18T22:52:49.778Z,100.00
2023-03-18T22:55:21.938Z,100.00
2023-03-18T22:57:50.071Z,100.00
2023-03-18T23:00:24.021Z,100.00
2023-03-18T23:02:54.223Z,100.00
2023-03-18T23:05:23.726Z,100.00
2023-03-18T23:07:52.471Z,100.00
2023-03-18T23:10:21.505Z,100.00
2023-03-18T23:12:50.153Z,100.00
2023-03-18T23:15:20.712Z,100.00
2023-03-18T23:17:50.399Z,100.00
2023-03-18T23:20:19.915Z,100.00
2023-03-18T23:22:47.787Z,100.00
2023-03-18T23:25:18.151Z,100.00
2023-03-18T23:27:46.500Z,100.00
2023-03-18T23:30:14.866Z,100.00
2023-03-18T23:32:42.943Z,100.00
2023-03-18T23:35:11.473Z,100.00
2023-03-18T23:37:40.744Z,100.00
2023-03-18T23:40:11.576Z,100.00
2023-03-18T23:42:39.402Z,100.00
2023-03-18T23:45:08.878Z,100.00
2023-03-18T23:47:36.789Z,100.00
2023-03-18T23:50:05.430Z,100.00
2023-03-18T23:52:33.744Z,100.00
2023-03-18T23:55:02.958Z,100.00
2023-03-18T23:57:30.739Z,100.00
2023-03-18T23:59:58.546Z,100.00
